Time;durP1;ratioP1;P1;durP2;ratioP2;P2;SDS_P1;SDS_P2;PMS_P1;PMS_P2;Temp;Humidity;BMP_temperature;BMP_pressure;BME280_temperature;BME280_humidity;BME280_pressure;Samples;Min_cycle;Max_cycle;Signal;HPM_P1;HPM_P2
2024/04/21 00:00:47;;;;;;;1.98;1.75;;;;;;;;;;5417832;26;20004;-77
2024/04/21 00:03:13;;;;;;;2.22;2.10;;;;;;;;;;5414356;26;20000;-78
2024/04/21 00:05:39;;;;;;;2.10;1.90;;;;;;;;;;5417080;26;20014;-77
2024/04/21 00:08:06;;;;;;;2.63;2.03;;;;;;;;;;5409088;26;19999;-78
2024/04/21 00:10:32;;;;;;;3.20;1.80;;;;;;;;;;5404129;26;20006;-78
2024/04/21 00:12:58;;;;;;;4.10;1.63;;;;;;;;;;5417448;26;20027;-78
2024/04/21 00:15:24;;;;;;;2.53;2.10;;;;;;;;;;5401210;26;20006;-79
2024/04/21 00:17:50;;;;;;;3.67;2.40;;;;;;;;;;5416400;26;19999;-78
2024/04/21 00:20:17;;;;;;;2.70;2.50;;;;;;;;;;5397794;26;20004;-77
2024/04/21 00:22:43;;;;;;;3.88;2.40;;;;;;;;;;5392243;26;20000;-77
2024/04/21 00:25:09;;;;;;;2.67;2.33;;;;;;;;;;5401565;26;20020;-77
2024/04/21 00:27:35;;;;;;;3.85;2.30;;;;;;;;;;5420521;26;20074;-78
2024/04/21 00:30:01;;;;;;;3.97;2.22;;;;;;;;;;5422664;26;19987;-79
2024/04/21 00:32:28;;;;;;;4.07;2.42;;;;;;;;;;5424844;26;20049;-78
2024/04/21 00:34:54;;;;;;;2.67;2.42;;;;;;;;;;5438787;26;20002;-80
2024/04/21 00:37:20;;;;;;;2.70;2.38;;;;;;;;;;5439028;26;20003;-79
2024/04/21 00:39:46;;;;;;;4.88;3.30;;;;;;;;;;5427528;26;19988;-79
2024/04/21 00:42:12;;;;;;;5.70;2.72;;;;;;;;;;5420824;26;20011;-79
2024/04/21 00:44:38;;;;;;;4.32;2.63;;;;;;;;;;5439489;26;20012;-80
2024/04/21 00:47:05;;;;;;;6.47;3.20;;;;;;;;;;5421999;26;20047;-78
2024/04/21 00:49:31;;;;;;;2.88;2.40;;;;;;;;;;5419104;26;20000;-78
2024/04/21 00:51:57;;;;;;;2.45;2.25;;;;;;;;;;5418319;26;20021;-77
2024/04/21 00:54:23;;;;;;;3.80;2.75;;;;;;;;;;5418000;26;19996;-76
2024/04/21 00:56:50;;;;;;;3.72;2.30;;;;;;;;;;5411531;26;20032;-77
2024/04/21 00:59:17;;;;;;;3.85;2.72;;;;;;;;;;5429766;26;19996;-77
2024/04/21 01:01:45;;;;;;;2.60;2.40;;;;;;;;;;5437294;26;20027;-78
2024/04/21 01:04:11;;;;;;;3.22;2.20;;;;;;;;;;5449056;26;20002;-78
2024/04/21 01:06:37;;;;;;;3.90;2.45;;;;;;;;;;5421285;26;20003;-79
2024/04/21 01:09:03;;;;;;;4.03;2.85;;;;;;;;;;5422845;26;20011;-78
2024/04/21 01:11:30;;;;;;;4.07;2.38;;;;;;;;;;5399743;26;20015;-77
2024/04/21 01:13:56;;;;;;;2.90;2.60;;;;;;;;;;5409922;26;20307;-77
2024/04/21 01:16:22;;;;;;;3.72;2.95;;;;;;;;;;5416527;26;19999;-77
2024/04/21 01:18:48;;;;;;;2.47;2.28;;;;;;;;;;5421921;26;20039;-78
2024/04/21 01:21:15;;;;;;;3.13;2.78;;;;;;;;;;5411924;26;20083;-78
2024/04/21 01:23:41;;;;;;;2.90;2.50;;;;;;;;;;5435871;26;20023;-77
2024/04/21 01:26:07;;;;;;;2.60;2.40;;;;;;;;;;5438516;26;20065;-80
2024/04/21 01:28:33;;;;;;;4.97;2.97;;;;;;;;;;5439483;26;20014;-78
2024/04/21 01:30:59;;;;;;;2.63;2.40;;;;;;;;;;5439520;26;20014;-78
2024/04/21 01:33:26;;;;;;;2.60;2.10;;;;;;;;;;5434174;26;20031;-77
2024/04/21 01:35:52;;;;;;;2.90;1.90;;;;;;;;;;5411080;26;20000;-78
2024/04/21 01:38:18;;;;;;;2.58;2.05;;;;;;;;;;5414026;26;20323;-77
2024/04/21 01:40:44;;;;;;;2.10;1.90;;;;;;;;;;5404006;26;20009;-76
2024/04/21 01:43:10;;;;;;;2.65;2.45;;;;;;;;;;5407554;26;20027;-79
2024/04/21 01:45:36;;;;;;;2.60;2.40;;;;;;;;;;5426022;26;20482;-78
2024/04/21 01:48:03;;;;;;;3.13;2.85;;;;;;;;;;5402793;26;20351;-78
2024/04/21 01:50:29;;;;;;;4.05;3.35;;;;;;;;;;5416053;26;20003;-79
2024/04/21 01:52:55;;;;;;;4.53;3.35;;;;;;;;;;5405082;26;19999;-78
2024/04/21 01:55:21;;;;;;;4.25;3.50;;;;;;;;;;5411727;26;20015;-79
2024/04/21 01:57:48;;;;;;;3.35;2.90;;;;;;;;;;5396837;26;20004;-78
2024/04/21 02:00:14;;;;;;;3.95;3.55;;;;;;;;;;5399931;26;20011;-78
2024/04/21 02:02:40;;;;;;;3.20;2.90;;;;;;;;;;5403921;26;19996;-78
2024/04/21 02:05:06;;;;;;;3.42;2.88;;;;;;;;;;5399725;26;20003;-78
2024/04/21 02:07:32;;;;;;;3.53;3.22;;;;;;;;;;5414875;26;19991;-78
2024/04/21 02:09:58;;;;;;;5.28;3.80;;;;;;;;;;5423972;26;20011;-79
2024/04/21 02:12:25;;;;;;;4.07;3.55;;;;;;;;;;5426788;26;20330;-76
2024/04/21 02:14:51;;;;;;;4.47;3.70;;;;;;;;;;5409941;26;20071;-77
2024/04/21 02:17:17;;;;;;;4.03;3.63;;;;;;;;;;5438053;26;19988;-78
2024/04/21 02:19:43;;;;;;;3.03;2.72;;;;;;;;;;5434034;26;20004;-79
2024/04/21 02:22:09;;;;;;;3.80;2.95;;;;;;;;;;5404596;26;20004;-77
2024/04/21 02:24:43;;;;;;;3.03;2.70;;;;;;;;;;5414413;26;20008;-77
2024/04/21 02:27:09;;;;;;;2.63;2.40;;;;;;;;;;5398770;26;20347;-78
2024/04/21 02:29:35;;;;;;;2.20;2.00;;;;;;;;;;5410666;26;20346;-78
2024/04/21 02:32:02;;;;;;;2.20;2.00;;;;;;;;;;5421186;26;20435;-78
2024/04/21 02:34:28;;;;;;;4.22;3.33;;;;;;;;;;5404188;26;20035;-77
2024/04/21 02:36:54;;;;;;;3.80;3.10;;;;;;;;;;5405284;26;19999;-79
2024/04/21 02:39:20;;;;;;;4.78;3.10;;;;;;;;;;5394403;26;20004;-78
2024/04/21 02:41:46;;;;;;;3.08;2.67;;;;;;;;;;5393924;26;19996;-79
2024/04/21 02:44:12;;;;;;;3.53;3.15;;;;;;;;;;5399650;26;19996;-79
2024/04/21 02:46:39;;;;;;;3.42;3.13;;;;;;;;;;5411975;26;20435;-79
2024/04/21 02:49:05;;;;;;;4.88;3.55;;;;;;;;;;5407940;26;20000;-77
2024/04/21 02:51:31;;;;;;;6.40;3.53;;;;;;;;;;5405983;26;20434;-78
2024/04/21 02:53:57;;;;;;;3.25;2.92;;;;;;;;;;5396703;26;20505;-77
2024/04/21 02:56:23;;;;;;;3.58;3.28;;;;;;;;;;5407685;26;20077;-78
2024/04/21 02:58:49;;;;;;;4.32;3.15;;;;;;;;;;5398032;26;20035;-78
2024/04/21 03:01:15;;;;;;;3.72;3.08;;;;;;;;;;5404084;26;20003;-77
2024/04/21 03:03:42;;;;;;;3.33;2.90;;;;;;;;;;5411481;26;20021;-77
2024/04/21 03:06:08;;;;;;;4.32;3.40;;;;;;;;;;5407941;26;19999;-77
2024/04/21 03:08:34;;;;;;;5.07;4.57;;;;;;;;;;5416703;26;20098;-78
2024/04/21 03:11:00;;;;;;;4.03;3.45;;;;;;;;;;5422054;26;20046;-80
2024/04/21 03:13:26;;;;;;;3.53;3.22;;;;;;;;;;5422209;26;19995;-79
2024/04/21 03:15:53;;;;;;;3.63;3.20;;;;;;;;;;5421754;26;20050;-79
2024/04/21 03:18:19;;;;;;;6.53;3.08;;;;;;;;;;5417883;26;20032;-79
2024/04/21 03:20:55;;;;;;;3.75;2.90;;;;;;;;;;5419519;26;20003;-80
2024/04/21 03:23:22;;;;;;;3.20;2.90;;;;;;;;;;5406589;26;20000;-80
2024/04/21 03:25:48;;;;;;;3.20;2.90;;;;;;;;;;5421693;26;20023;-80
2024/04/21 03:28:15;;;;;;;3.22;2.92;;;;;;;;;;5406782;26;20009;-78
2024/04/21 03:30:41;;;;;;;3.25;2.83;;;;;;;;;;5422037;26;19999;-79
2024/04/21 03:33:08;;;;;;;2.55;2.35;;;;;;;;;;5420927;26;20003;-79
2024/04/21 03:35:34;;;;;;;2.75;2.55;;;;;;;;;;5406718;26;19995;-78
2024/04/21 03:38:00;;;;;;;3.22;2.90;;;;;;;;;;5419859;26;20023;-80
2024/04/21 03:40:27;;;;;;;4.68;3.70;;;;;;;;;;5395073;26;20003;-80
2024/04/21 03:42:53;;;;;;;3.47;2.70;;;;;;;;;;5411712;26;20011;-80
2024/04/21 03:45:20;;;;;;;3.67;2.80;;;;;;;;;;5419750;26;20007;-81
2024/04/21 03:47:46;;;;;;;4.60;3.10;;;;;;;;;;5433555;26;20000;-80
2024/04/21 03:50:12;;;;;;;3.08;2.78;;;;;;;;;;5425707;26;20011;-81
2024/04/21 03:52:38;;;;;;;4.10;3.60;;;;;;;;;;5409508;26;20010;-81
2024/04/21 03:55:05;;;;;;;3.58;3.28;;;;;;;;;;5407265;26;20035;-81
2024/04/21 03:57:31;;;;;;;3.20;2.90;;;;;;;;;;5394757;26;19995;-81
2024/04/21 03:59:57;;;;;;;3.03;2.80;;;;;;;;;;5428225;26;19992;-81
2024/04/21 04:02:23;;;;;;;2.97;2.70;;;;;;;;;;5433009;26;19992;-79
2024/04/21 04:04:49;;;;;;;2.60;2.33;;;;;;;;;;5440633;26;19999;-83
2024/04/21 04:07:16;;;;;;;2.85;2.65;;;;;;;;;;5440556;26;19984;-83
2024/04/21 04:09:42;;;;;;;2.33;2.13;;;;;;;;;;5440055;26;19991;-84
2024/04/21 04:12:08;;;;;;;2.33;2.13;;;;;;;;;;5440753;26;19984;-84
2024/04/21 04:14:34;;;;;;;2.47;2.28;;;;;;;;;;5440008;26;19988;-83
2024/04/21 04:17:00;;;;;;;4.82;3.45;;;;;;;;;;5439872;26;19987;-82
2024/04/21 04:19:27;;;;;;;3.25;2.88;;;;;;;;;;5419602;26;20014;-81
2024/04/21 04:21:53;;;;;;;2.45;2.25;;;;;;;;;;5398517;26;19996;-81
2024/04/21 04:24:19;;;;;;;2.35;2.15;;;;;;;;;;5406770;26;20028;-81
2024/04/21 04:26:45;;;;;;;3.03;2.35;;;;;;;;;;5408492;26;20485;-80
2024/04/21 04:29:11;;;;;;;2.10;1.90;;;;;;;;;;5425190;26;20006;-81
2024/04/21 04:31:37;;;;;;;2.40;2.15;;;;;;;;;;5434494;26;19991;-79
2024/04/21 04:34:04;;;;;;;2.42;2.22;;;;;;;;;;5436910;26;19996;-80
2024/04/21 04:36:30;;;;;;;2.25;2.03;;;;;;;;;;5464580;26;19992;-79
2024/04/21 04:38:56;;;;;;;1.90;1.80;;;;;;;;;;5427811;26;20057;-80
2024/04/21 04:41:22;;;;;;;2.47;2.28;;;;;;;;;;5408508;26;20000;-80
2024/04/21 04:43:48;;;;;;;4.30;3.28;;;;;;;;;;5424578;26;20325;-80
2024/04/21 04:46:14;;;;;;;4.05;3.03;;;;;;;;;;5407687;26;19988;-80
2024/04/21 04:48:40;;;;;;;2.70;2.25;;;;;;;;;;5409680;26;20036;-80
2024/04/21 04:51:07;;;;;;;3.00;2.70;;;;;;;;;;5423100;26;20504;-80
2024/04/21 04:53:33;;;;;;;2.63;2.42;;;;;;;;;;5424860;26;20026;-79
2024/04/21 04:55:59;;;;;;;2.55;2.33;;;;;;;;;;5413727;26;20011;-80
2024/04/21 04:58:25;;;;;;;2.13;1.92;;;;;;;;;;5429744;26;20007;-78
2024/04/21 05:00:51;;;;;;;2.00;1.90;;;;;;;;;;5422534;26;20003;-78
2024/04/21 05:03:17;;;;;;;2.22;2.03;;;;;;;;;;5418095;26;20018;-78
2024/04/21 05:05:44;;;;;;;1.70;1.60;;;;;;;;;;5406257;26;20018;-77
2024/04/21 05:08:10;;;;;;;1.83;1.73;;;;;;;;;;5412574;26;20077;-76
2024/04/21 05:10:36;;;;;;;1.83;1.73;;;;;;;;;;5417050;26;20005;-78
2024/04/21 05:13:02;;;;;;;1.60;1.40;;;;;;;;;;5404356;26;20094;-77
2024/04/21 05:15:29;;;;;;;1.42;1.33;;;;;;;;;;5398120;26;20023;-77
2024/04/21 05:17:55;;;;;;;1.95;1.75;;;;;;;;;;5407434;26;20032;-79
2024/04/21 05:20:51;;;;;;;2.00;1.80;;;;;;;;;;5393675;26;20036;-78
2024/04/21 05:23:17;;;;;;;1.63;1.52;;;;;;;;;;5428210;26;19995;-79
2024/04/21 05:25:43;;;;;;;2.90;2.55;;;;;;;;;;5432318;26;19987;-81
2024/04/21 05:28:10;;;;;;;3.35;2.70;;;;;;;;;;5423122;26;20032;-80
2024/04/21 05:30:37;;;;;;;2.20;2.00;;;;;;;;;;5423064;26;20010;-81
2024/04/21 05:33:03;;;;;;;2.25;2.05;;;;;;;;;;5430534;26;20011;-79
2024/04/21 05:35:29;;;;;;;2.13;2.00;;;;;;;;;;5436098;26;19995;-79
2024/04/21 05:37:56;;;;;;;1.90;1.80;;;;;;;;;;5432235;26;20007;-79
2024/04/21 05:40:22;;;;;;;1.80;1.65;;;;;;;;;;5406783;26;20061;-80
2024/04/21 05:42:48;;;;;;;2.20;1.95;;;;;;;;;;5427148;26;20000;-79
2024/04/21 05:45:14;;;;;;;1.98;1.73;;;;;;;;;;5424789;26;19984;-78
2024/04/21 05:47:40;;;;;;;2.63;1.95;;;;;;;;;;5389143;26;19996;-78
2024/04/21 05:50:07;;;;;;;2.10;1.90;;;;;;;;;;5416166;26;20298;-78
2024/04/21 05:52:34;;;;;;;3.10;2.78;;;;;;;;;;5415920;26;19996;-78
2024/04/21 05:55:00;;;;;;;2.80;2.60;;;;;;;;;;5415787;26;20075;-79
2024/04/21 05:57:26;;;;;;;3.28;2.60;;;;;;;;;;5410246;26;20007;-79
2024/04/21 05:59:52;;;;;;;4.43;2.35;;;;;;;;;;5403715;26;20011;-79
2024/04/21 06:02:18;;;;;;;2.05;1.95;;;;;;;;;;5412750;26;19999;-79
2024/04/21 06:04:45;;;;;;;2.50;2.30;;;;;;;;;;5392895;26;19992;-81
2024/04/21 06:07:11;;;;;;;2.35;2.00;;;;;;;;;;5427533;26;20324;-79
2024/04/21 06:09:37;;;;;;;1.90;1.80;;;;;;;;;;5404726;26;20004;-79
2024/04/21 06:12:04;;;;;;;2.17;1.88;;;;;;;;;;5397931;26;20004;-79
2024/04/21 06:14:30;;;;;;;1.98;1.65;;;;;;;;;;5403881;26;19998;-80
2024/04/21 06:16:56;;;;;;;2.17;1.98;;;;;;;;;;5419701;26;20014;-78
2024/04/21 06:19:22;;;;;;;1.73;1.60;;;;;;;;;;5418655;26;20003;-79
2024/04/21 06:21:48;;;;;;;2.17;1.90;;;;;;;;;;5407815;26;20010;-79
2024/04/21 06:24:14;;;;;;;3.45;2.35;;;;;;;;;;5419186;26;20005;-78
2024/04/21 06:26:41;;;;;;;1.80;1.70;;;;;;;;;;5417757;26;20011;-79
2024/04/21 06:29:07;;;;;;;2.28;2.08;;;;;;;;;;5418404;26;20071;-79
2024/04/21 06:31:34;;;;;;;1.60;1.50;;;;;;;;;;5419079;26;20025;-80
2024/04/21 06:34:00;;;;;;;2.38;1.60;;;;;;;;;;5392210;26;20000;-80
2024/04/21 06:36:27;;;;;;;1.42;1.33;;;;;;;;;;5419352;26;20015;-80
2024/04/21 06:38:54;;;;;;;1.90;1.75;;;;;;;;;;5419967;26;19999;-79
2024/04/21 06:41:20;;;;;;;1.67;1.38;;;;;;;;;;5406537;26;20004;-80
2024/04/21 06:43:46;;;;;;;1.20;1.10;;;;;;;;;;5418737;26;20497;-79
2024/04/21 06:46:12;;;;;;;1.65;1.50;;;;;;;;;;5417360;26;20015;-79
2024/04/21 06:48:38;;;;;;;1.60;1.50;;;;;;;;;;5403998;26;20045;-79
2024/04/21 06:51:05;;;;;;;1.10;1.10;;;;;;;;;;5418891;26;20000;-78
2024/04/21 06:53:31;;;;;;;2.00;1.67;;;;;;;;;;5404688;26;20066;-78
2024/04/21 06:55:58;;;;;;;1.83;1.52;;;;;;;;;;5420786;26;20401;-78
2024/04/21 06:58:24;;;;;;;1.70;1.30;;;;;;;;;;5432612;26;20007;-78
2024/04/21 07:00:50;;;;;;;1.50;1.23;;;;;;;;;;5434277;26;20007;-79
2024/04/21 07:03:16;;;;;;;1.10;1.10;;;;;;;;;;5413479;26;20486;-78
2024/04/21 07:05:43;;;;;;;1.73;1.20;;;;;;;;;;5417410;26;20007;-79
2024/04/21 07:08:09;;;;;;;1.77;1.17;;;;;;;;;;5418692;26;20000;-80
2024/04/21 07:10:35;;;;;;;2.05;1.20;;;;;;;;;;5391517;26;20007;-79
2024/04/21 07:13:01;;;;;;;0.80;0.80;;;;;;;;;;5409850;26;19999;-80
2024/04/21 07:15:28;;;;;;;0.65;0.65;;;;;;;;;;5405821;26;20072;-79
2024/04/21 07:17:54;;;;;;;1.00;0.90;;;;;;;;;;5417297;26;20010;-79
2024/04/21 07:20:21;;;;;;;1.27;1.10;;;;;;;;;;5417516;26;19996;-79
2024/04/21 07:22:47;;;;;;;1.35;1.20;;;;;;;;;;5408838;26;20019;-79
2024/04/21 07:25:17;;;;;;;1.52;1.00;;;;;;;;;;5385209;26;20000;-79
2024/04/21 07:27:43;;;;;;;2.85;1.30;;;;;;;;;;5395946;26;20010;-79
2024/04/21 07:30:10;;;;;;;2.35;1.08;;;;;;;;;;5411981;26;19999;-79
2024/04/21 07:32:36;;;;;;;2.00;1.00;;;;;;;;;;5403789;26;20006;-80
2024/04/21 07:35:02;;;;;;;1.67;1.10;;;;;;;;;;5382613;26;19996;-78
2024/04/21 07:37:28;;;;;;;1.15;0.90;;;;;;;;;;5416682;26;20450;-78
2024/04/21 07:39:56;;;;;;;0.93;0.80;;;;;;;;;;5411713;26;20351;-80
2024/04/21 07:42:22;;;;;;;1.45;1.08;;;;;;;;;;5418473;26;20221;-80
2024/04/21 07:44:48;;;;;;;1.02;0.93;;;;;;;;;;5409517;26;20013;-79
2024/04/21 07:47:15;;;;;;;1.42;0.93;;;;;;;;;;5417105;26;20010;-80
2024/04/21 07:49:41;;;;;;;0.70;0.70;;;;;;;;;;5403491;26;19993;-80
2024/04/21 07:52:07;;;;;;;0.85;0.75;;;;;;;;;;5406353;26;20069;-79
2024/04/21 07:54:33;;;;;;;1.00;0.90;;;;;;;;;;5419313;26;19999;-79
2024/04/21 07:57:00;;;;;;;2.25;0.75;;;;;;;;;;5420238;26;20000;-78
2024/04/21 07:59:26;;;;;;;2.47;0.77;;;;;;;;;;5406742;26;20035;-79
2024/04/21 08:01:52;;;;;;;1.52;0.68;;;;;;;;;;5409978;26;20011;-78
2024/04/21 08:04:18;;;;;;;2.00;0.57;;;;;;;;;;5408206;26;20049;-79
2024/04/21 08:06:45;;;;;;;1.27;0.85;;;;;;;;;;5395640;26;20007;-79
2024/04/21 08:09:11;;;;;;;0.90;0.55;;;;;;;;;;5398330;26;20478;-80
2024/04/21 08:11:37;;;;;;;0.52;0.50;;;;;;;;;;5419210;26;20054;-79
2024/04/21 08:14:04;;;;;;;0.90;0.73;;;;;;;;;;5390338;26;20015;-78
2024/04/21 08:16:33;;;;;;;1.25;0.45;;;;;;;;;;5416221;26;20399;-78
2024/04/21 08:18:59;;;;;;;0.75;0.40;;;;;;;;;;5417497;26;20004;-80
2024/04/21 08:21:25;;;;;;;2.00;0.60;;;;;;;;;;5392224;26;20018;-79
2024/04/21 08:23:51;;;;;;;0.50;0.50;;;;;;;;;;5407473;26;20000;-79
2024/04/21 08:26:17;;;;;;;1.05;0.47;;;;;;;;;;5420947;26;20092;-79
2024/04/21 08:28:43;;;;;;;0.80;0.52;;;;;;;;;;5398544;26;19996;-80
2024/04/21 08:31:09;;;;;;;1.10;1.00;;;;;;;;;;5437537;26;20011;-81
2024/04/21 08:33:36;;;;;;;1.95;1.27;;;;;;;;;;5435236;26;19988;-80
2024/04/21 08:36:03;;;;;;;2.10;1.20;;;;;;;;;;5422527;26;20066;-80
2024/04/21 08:38:29;;;;;;;0.85;0.82;;;;;;;;;;5419653;26;20002;-78
2024/04/21 08:40:56;;;;;;;1.15;1.05;;;;;;;;;;5426319;26;19995;-79
2024/04/21 08:43:23;;;;;;;0.90;0.80;;;;;;;;;;5430699;26;20129;-78
2024/04/21 08:45:53;;;;;;;0.93;0.82;;;;;;;;;;5431516;26;20011;-79
2024/04/21 08:48:20;;;;;;;1.35;0.85;;;;;;;;;;5430126;26;20037;-80
2024/04/21 08:50:47;;;;;;;2.25;1.17;;;;;;;;;;5424745;26;20458;-79
2024/04/21 08:53:13;;;;;;;2.08;0.88;;;;;;;;;;5417510;26;20039;-79
2024/04/21 08:55:43;;;;;;;2.60;1.00;;;;;;;;;;5405986;26;20003;-78
2024/04/21 08:58:13;;;;;;;1.40;0.77;;;;;;;;;;5424127;26;20334;-79
2024/04/21 09:00:39;;;;;;;1.38;0.80;;;;;;;;;;5391592;26;20004;-79
2024/04/21 09:03:08;;;;;;;1.10;0.52;;;;;;;;;;5413706;26;20006;-78
2024/04/21 09:05:35;;;;;;;2.60;0.77;;;;;;;;;;5402779;26;20004;-79
2024/04/21 09:08:01;;;;;;;0.40;0.40;;;;;;;;;;5419809;26;20011;-79
2024/04/21 09:10:28;;;;;;;1.65;0.65;;;;;;;;;;5416909;26;20003;-79
2024/04/21 09:12:54;;;;;;;1.65;1.02;;;;;;;;;;5418732;26;20330;-80
2024/04/21 09:15:24;;;;;;;2.38;1.08;;;;;;;;;;5418933;26;20007;-79
2024/04/21 09:17:50;;;;;;;0.98;0.80;;;;;;;;;;5418570;26;20580;-78
2024/04/21 09:20:16;;;;;;;1.02;0.60;;;;;;;;;;5417586;26;20004;-77
2024/04/21 09:22:42;;;;;;;1.92;1.08;;;;;;;;;;5415408;26;20064;-79
2024/04/21 09:25:08;;;;;;;2.75;0.88;;;;;;;;;;5390661;26;20024;-78
2024/04/21 09:27:35;;;;;;;1.33;1.02;;;;;;;;;;5401245;26;19996;-79
2024/04/21 09:30:02;;;;;;;3.50;2.05;;;;;;;;;;5419582;26;20006;-79
2024/04/21 09:32:29;;;;;;;2.33;1.52;;;;;;;;;;5404854;26;20069;-80
2024/04/21 09:34:56;;;;;;;1.48;1.38;;;;;;;;;;5419422;26;20026;-78
2024/04/21 09:37:23;;;;;;;1.10;1.02;;;;;;;;;;5428178;26;20003;-79
2024/04/21 09:39:50;;;;;;;1.08;0.90;;;;;;;;;;5415106;26;20008;-78
2024/04/21 09:42:19;;;;;;;0.50;0.50;;;;;;;;;;5399949;26;20044;-79
2024/04/21 09:44:49;;;;;;;1.08;0.60;;;;;;;;;;5425323;26;19995;-79
2024/04/21 09:47:16;;;;;;;0.85;0.60;;;;;;;;;;5437599;26;20015;-79
2024/04/21 09:49:43;;;;;;;0.45;0.45;;;;;;;;;;5438019;26;20006;-80
2024/04/21 09:52:11;;;;;;;0.93;0.38;;;;;;;;;;5438102;26;19997;-79
2024/04/21 09:54:38;;;;;;;0.20;0.20;;;;;;;;;;5403923;26;20130;-78
2024/04/21 09:57:18;;;;;;;0.35;0.35;;;;;;;;;;5401992;26;20036;-79
2024/04/21 09:59:45;;;;;;;0.30;0.20;;;;;;;;;;5410258;26;20370;-79
2024/04/21 10:02:17;;;;;;;0.50;0.50;;;;;;;;;;5401676;26;20008;-79
2024/04/21 10:04:43;;;;;;;;;;;;;;;;;;5416840;26;20010;-80
2024/04/21 10:07:10;;;;;;;0.40;0.40;;;;;;;;;;5423104;26;19925;-79
2024/04/21 10:09:36;;;;;;;0.40;0.40;;;;;;;;;;5425912;26;20022;-79
2024/04/21 10:12:02;;;;;;;0.30;0.30;;;;;;;;;;5426261;26;20031;-78
2024/04/21 10:14:29;;;;;;;0.30;0.30;;;;;;;;;;5419154;26;20007;-78
2024/04/21 10:16:55;;;;;;;0.30;0.28;;;;;;;;;;5419343;26;20072;-80
2024/04/21 10:19:25;;;;;;;0.17;0.17;;;;;;;;;;5419719;26;19999;-79
2024/04/21 10:21:52;;;;;;;0.38;0.30;;;;;;;;;;5384747;26;20430;-79
2024/04/21 10:24:19;;;;;;;0.25;0.25;;;;;;;;;;5420092;26;19999;-80
2024/04/21 10:26:45;;;;;;;0.30;0.30;;;;;;;;;;5414170;26;20400;-80
2024/04/21 10:29:12;;;;;;;0.55;0.55;;;;;;;;;;5411524;26;20015;-80
2024/04/21 10:31:38;;;;;;;3.10;1.38;;;;;;;;;;5420144;26;19995;-79
2024/04/21 10:34:09;;;;;;;0.98;0.88;;;;;;;;;;5419543;26;20107;-78
2024/04/21 10:36:46;;;;;;;0.98;0.82;;;;;;;;;;5407597;26;20083;-81
2024/04/21 10:39:23;;;;;;;6.20;3.10;;;;;;;;;;5423042;26;20069;-79
2024/04/21 10:41:51;;;;;;;1.45;1.35;;;;;;;;;;5410002;26;19995;-79
2024/04/21 10:44:18;;;;;;;0.88;0.82;;;;;;;;;;5402202;26;20008;-78
2024/04/21 10:46:45;;;;;;;1.48;1.00;;;;;;;;;;5416570;26;20011;-78
2024/04/21 10:49:11;;;;;;;0.73;0.65;;;;;;;;;;5411376;26;20044;-78
2024/04/21 10:51:37;;;;;;;2.63;0.80;;;;;;;;;;5420654;26;20453;-78
2024/04/21 10:54:03;;;;;;;4.55;2.40;;;;;;;;;;5419965;26;20420;-78
2024/04/21 10:56:30;;;;;;;5.10;2.13;;;;;;;;;;5428452;26;20016;-80
2024/04/21 10:58:56;;;;;;;1.23;1.10;;;;;;;;;;5430456;26;20011;-77
2024/04/21 11:01:26;;;;;;;2.13;1.15;;;;;;;;;;5419839;26;19999;-79
2024/04/21 11:03:52;;;;;;;0.47;0.40;;;;;;;;;;5398400;26;20031;-79
2024/04/21 11:06:18;;;;;;;0.20;0.20;;;;;;;;;;5398033;26;20027;-78
2024/04/21 11:08:47;;;;;;;0.20;0.20;;;;;;;;;;5417736;26;20014;-78
2024/04/21 11:11:14;;;;;;;0.30;0.30;;;;;;;;;;5418726;26;20749;-79
2024/04/21 11:13:40;;;;;;;0.40;0.40;;;;;;;;;;5419180;26;20011;-80
2024/04/21 11:16:13;;;;;;;0.20;0.20;;;;;;;;;;5418956;26;20391;-79
2024/04/21 11:18:39;;;;;;;0.40;0.40;;;;;;;;;;5402411;26;20010;-78
2024/04/21 11:21:06;;;;;;;0.30;0.30;;;;;;;;;;5389322;26;20010;-78
2024/04/21 11:23:32;;;;;;;0.20;0.20;;;;;;;;;;5416472;26;20143;-79
2024/04/21 11:25:59;;;;;;;0.38;0.30;;;;;;;;;;5418717;26;20043;-77
2024/04/21 11:28:25;;;;;;;0.45;0.30;;;;;;;;;;5414755;26;20000;-78
2024/04/21 11:31:03;;;;;;;0.45;0.30;;;;;;;;;;5414189;26;20006;-78
2024/04/21 11:33:30;;;;;;;0.45;0.40;;;;;;;;;;5409359;26;20378;-79
2024/04/21 11:35:56;;;;;;;0.32;0.20;;;;;;;;;;5401049;26;20085;-79
2024/04/21 11:38:24;;;;;;;0.25;0.25;;;;;;;;;;5417367;26;19999;-79
2024/04/21 11:40:50;;;;;;;0.30;0.30;;;;;;;;;;5399238;26;19997;-79
2024/04/21 11:43:18;;;;;;;0.20;0.20;;;;;;;;;;5424331;26;20049;-82
2024/04/21 11:45:44;;;;;;;0.10;0.10;;;;;;;;;;5402226;26;20007;-78
2024/04/21 11:48:11;;;;;;;0.30;0.30;;;;;;;;;;5417858;26;20074;-78
2024/04/21 11:50:40;;;;;;;0.25;0.25;;;;;;;;;;5422116;26;20053;-79
2024/04/21 11:53:06;;;;;;;0.52;0.38;;;;;;;;;;5430148;26;20011;-76
2024/04/21 11:55:33;;;;;;;0.75;0.30;;;;;;;;;;5407567;26;20003;-78
2024/04/21 11:57:59;;;;;;;0.45;0.32;;;;;;;;;;5419630;26;20076;-78
2024/04/21 12:00:25;;;;;;;2.20;0.55;;;;;;;;;;5406056;26;20397;-77
2024/04/21 12:02:51;;;;;;;0.93;0.75;;;;;;;;;;5419948;26;20037;-78
2024/04/21 12:05:18;;;;;;;0.50;0.50;;;;;;;;;;5421377;26;20009;-77
2024/04/21 12:07:44;;;;;;;0.85;0.68;;;;;;;;;;5404265;26;19999;-78
2024/04/21 12:10:11;;;;;;;0.40;0.40;;;;;;;;;;5423855;26;20122;-78
2024/04/21 12:12:37;;;;;;;0.85;0.45;;;;;;;;;;5403855;26;20022;-78
2024/04/21 12:15:04;;;;;;;0.30;0.30;;;;;;;;;;5419580;26;20014;-79
2024/04/21 12:17:30;;;;;;;0.45;0.45;;;;;;;;;;5417389;26;20003;-78
2024/04/21 12:19:56;;;;;;;0.43;0.43;;;;;;;;;;5421456;26;20362;-79
2024/04/21 12:22:22;;;;;;;0.82;0.43;;;;;;;;;;5419068;26;20450;-77
2024/04/21 12:24:49;;;;;;;0.20;0.20;;;;;;;;;;5419694;26;20008;-78
2024/04/21 12:27:15;;;;;;;0.45;0.20;;;;;;;;;;5418994;26;20003;-78
2024/04/21 12:29:41;;;;;;;0.68;0.47;;;;;;;;;;5403793;26;20011;-77
2024/04/21 12:32:07;;;;;;;0.25;0.25;;;;;;;;;;5418833;26;20004;-77
2024/04/21 12:34:34;;;;;;;0.43;0.25;;;;;;;;;;5414797;26;20450;-77
2024/04/21 12:37:00;;;;;;;0.10;0.10;;;;;;;;;;5397644;26;20433;-78
2024/04/21 12:39:26;;;;;;;0.50;0.20;;;;;;;;;;5414491;26;20031;-78
2024/04/21 12:41:52;;;;;;;0.15;0.10;;;;;;;;;;5418935;26;20466;-78
2024/04/21 12:44:18;;;;;;;0.30;0.20;;;;;;;;;;5419035;26;20012;-78
2024/04/21 12:46:44;;;;;;;0.08;0.08;;;;;;;;;;5398872;26;20450;-79
2024/04/21 12:49:11;;;;;;;0.32;0.20;;;;;;;;;;5405895;26;20454;-79
2024/04/21 12:51:37;;;;;;;0.40;0.20;;;;;;;;;;5420521;26;20353;-80
2024/04/21 12:54:03;;;;;;;0.20;0.20;;;;;;;;;;5431370;26;20053;-81
2024/04/21 12:56:29;;;;;;;0.20;0.20;;;;;;;;;;5426128;26;20010;-81
2024/04/21 12:58:55;;;;;;;0.85;0.40;;;;;;;;;;5421673;26;20043;-81
2024/04/21 13:01:21;;;;;;;0.82;0.32;;;;;;;;;;5409546;26;19998;-77
2024/04/21 13:03:48;;;;;;;0.55;0.38;;;;;;;;;;5436244;26;20003;-78
2024/04/21 13:06:14;;;;;;;0.50;0.30;;;;;;;;;;5430616;26;20011;-80
2024/04/21 13:08:40;;;;;;;0.75;0.38;;;;;;;;;;5424735;26;20019;-78
2024/04/21 13:11:07;;;;;;;0.30;0.10;;;;;;;;;;5424106;26;19992;-78
2024/04/21 13:13:33;;;;;;;0.30;0.28;;;;;;;;;;5430936;26;19989;-82
2024/04/21 13:16:00;;;;;;;0.75;0.40;;;;;;;;;;5431773;26;20007;-77
2024/04/21 13:18:26;;;;;;;0.35;0.35;;;;;;;;;;5422641;26;20008;-80
2024/04/21 13:20:52;;;;;;;1.77;0.50;;;;;;;;;;5430874;26;20014;-77
2024/04/21 13:23:18;;;;;;;0.40;0.40;;;;;;;;;;5425505;26;20008;-79
2024/04/21 13:25:44;;;;;;;0.30;0.20;;;;;;;;;;5417336;26;20011;-80
2024/04/21 13:28:11;;;;;;;0.30;0.17;;;;;;;;;;5416537;26;19995;-81
2024/04/21 13:30:37;;;;;;;0.15;0.15;;;;;;;;;;5415951;26;20010;-81
2024/04/21 13:33:03;;;;;;;0.85;0.43;;;;;;;;;;5419246;26;20455;-81
2024/04/21 13:35:29;;;;;;;0.80;0.32;;;;;;;;;;5411319;26;20462;-80
2024/04/21 13:37:55;;;;;;;0.25;0.25;;;;;;;;;;5412594;26;19996;-81
2024/04/21 13:40:22;;;;;;;0.60;0.50;;;;;;;;;;5422691;26;20090;-79
2024/04/21 13:42:48;;;;;;;0.40;0.40;;;;;;;;;;5418297;26;20008;-79
2024/04/21 13:45:14;;;;;;;0.60;0.60;;;;;;;;;;5425763;26;20009;-79
2024/04/21 13:47:40;;;;;;;1.00;0.40;;;;;;;;;;5426319;26;20015;-81
2024/04/21 13:50:07;;;;;;;1.52;0.57;;;;;;;;;;5421417;26;20358;-83
2024/04/21 13:52:33;;;;;;;0.60;0.60;;;;;;;;;;5413002;26;19996;-79
2024/04/21 13:54:59;;;;;;;0.32;0.28;;;;;;;;;;5422681;26;19999;-80
2024/04/21 13:57:27;;;;;;;0.47;0.47;;;;;;;;;;5422913;26;20007;-80
2024/04/21 13:59:53;;;;;;;0.82;0.73;;;;;;;;;;5420150;26;19999;-80
2024/04/21 14:02:20;;;;;;;0.80;0.80;;;;;;;;;;5421649;26;20019;-80
2024/04/21 14:04:46;;;;;;;1.23;0.82;;;;;;;;;;5415143;26;20011;-82
2024/04/21 14:07:12;;;;;;;1.25;0.80;;;;;;;;;;5420495;26;20000;-80
2024/04/21 14:09:39;;;;;;;1.30;0.60;;;;;;;;;;5417583;26;20004;-81
2024/04/21 14:12:05;;;;;;;0.95;0.75;;;;;;;;;;5419332;26;20007;-78
2024/04/21 14:14:31;;;;;;;0.70;0.70;;;;;;;;;;5420264;26;20054;-80
2024/04/21 14:16:57;;;;;;;1.00;0.70;;;;;;;;;;5420526;26;20046;-79
2024/04/21 14:19:24;;;;;;;0.40;0.30;;;;;;;;;;5419595;26;20452;-80
2024/04/21 14:21:50;;;;;;;0.43;0.32;;;;;;;;;;5414319;26;20014;-80
2024/04/21 14:24:16;;;;;;;0.30;0.30;;;;;;;;;;5421366;26;19995;-81
2024/04/21 14:26:42;;;;;;;0.65;0.50;;;;;;;;;;5421661;26;20000;-79
2024/04/21 14:29:08;;;;;;;0.40;0.35;;;;;;;;;;5424616;26;20011;-81
2024/04/21 14:31:34;;;;;;;0.47;0.47;;;;;;;;;;5420326;26;20012;-81
2024/04/21 14:34:03;;;;;;;0.40;0.40;;;;;;;;;;5423868;26;19999;-81
2024/04/21 14:36:29;;;;;;;1.05;0.30;;;;;;;;;;5413077;26;20006;-80
2024/04/21 14:38:55;;;;;;;0.20;0.20;;;;;;;;;;5432472;26;19995;-80